sensor_id;sensor_type;location;lat;lon;timestamp;P1;durP1;ratioP1;P2;durP2;ratioP2
68653;SDS011;55636;51.108;13.622;2024-01-11T00:00:08;31.58;;;22.70;;
68653;SDS011;55636;51.108;13.622;2024-01-11T00:01:11;28.73;;;22.13;;
68653;SDS011;55636;51.108;13.622;2024-01-11T00:02:13;29.10;;;22.15;;
68653;SDS011;55636;51.108;13.622;2024-01-11T00:03:16;29.73;;;22.33;;
68653;SDS011;55636;51.108;13.622;2024-01-11T00:04:18;30.00;;;22.25;;
68653;SDS011;55636;51.108;13.622;2024-01-11T00:05:20;30.05;;;22.17;;
68653;SDS011;55636;51.108;13.622;2024-01-11T00:06:23;31.00;;;21.98;;
68653;SDS011;55636;51.108;13.622;2024-01-11T00:07:27;30.98;;;22.58;;
68653;SDS011;55636;51.108;13.622;2024-01-11T00:08:29;30.52;;;21.85;;
68653;SDS011;55636;51.108;13.622;2024-01-11T00:09:32;30.27;;;22.13;;
68653;SDS011;55636;51.108;13.622;2024-01-11T00:10:35;30.80;;;22.27;;
68653;SDS011;55636;51.108;13.622;2024-01-11T00:11:38;29.23;;;21.60;;
68653;SDS011;55636;51.108;13.622;2024-01-11T00:12:41;29.85;;;22.15;;
68653;SDS011;55636;51.108;13.622;2024-01-11T00:13:43;28.65;;;21.67;;
68653;SDS011;55636;51.108;13.622;2024-01-11T00:14:46;32.13;;;22.83;;
68653;SDS011;55636;51.108;13.622;2024-01-11T00:15:48;31.13;;;22.42;;
68653;SDS011;55636;51.108;13.622;2024-01-11T00:16:52;30.02;;;22.48;;
68653;SDS011;55636;51.108;13.622;2024-01-11T00:17:54;29.25;;;21.55;;
68653;SDS011;55636;51.108;13.622;2024-01-11T00:18:57;30.75;;;21.88;;
68653;SDS011;55636;51.108;13.622;2024-01-11T00:20:00;31.35;;;22.92;;
68653;SDS011;55636;51.108;13.622;2024-01-11T00:21:03;29.65;;;22.00;;
68653;SDS011;55636;51.108;13.622;2024-01-11T00:22:06;29.85;;;22.42;;
68653;SDS011;55636;51.108;13.622;2024-01-11T00:23:08;31.25;;;22.05;;
68653;SDS011;55636;51.108;13.622;2024-01-11T00:24:11;31.05;;;22.52;;
68653;SDS011;55636;51.108;13.622;2024-01-11T00:25:13;29.42;;;21.70;;
68653;SDS011;55636;51.108;13.622;2024-01-11T00:26:16;30.02;;;22.48;;
68653;SDS011;55636;51.108;13.622;2024-01-11T00:27:18;32.30;;;22.85;;
68653;SDS011;55636;51.108;13.622;2024-01-11T00:28:20;31.98;;;22.52;;
68653;SDS011;55636;51.108;13.622;2024-01-11T00:29:24;29.33;;;22.02;;
68653;SDS011;55636;51.108;13.622;2024-01-11T00:30:26;30.83;;;22.55;;
68653;SDS011;55636;51.108;13.622;2024-01-11T00:31:29;29.48;;;22.08;;
68653;SDS011;55636;51.108;13.622;2024-01-11T00:32:31;28.38;;;21.75;;
68653;SDS011;55636;51.108;13.622;2024-01-11T00:33:34;31.15;;;22.42;;
68653;SDS011;55636;51.108;13.622;2024-01-11T00:34:36;30.08;;;22.02;;
68653;SDS011;55636;51.108;13.622;2024-01-11T00:35:39;31.25;;;22.52;;
68653;SDS011;55636;51.108;13.622;2024-01-11T00:36:41;31.73;;;22.67;;
68653;SDS011;55636;51.108;13.622;2024-01-11T00:37:45;28.42;;;21.80;;
68653;SDS011;55636;51.108;13.622;2024-01-11T00:38:48;29.27;;;21.75;;
68653;SDS011;55636;51.108;13.622;2024-01-11T00:39:51;31.67;;;22.48;;
68653;SDS011;55636;51.108;13.622;2024-01-11T00:40:54;27.52;;;21.40;;
68653;SDS011;55636;51.108;13.622;2024-01-11T00:41:58;30.05;;;22.00;;
68653;SDS011;55636;51.108;13.622;2024-01-11T00:43:00;30.75;;;22.15;;
68653;SDS011;55636;51.108;13.622;2024-01-11T00:44:02;30.25;;;22.35;;
68653;SDS011;55636;51.108;13.622;2024-01-11T00:45:05;32.47;;;22.88;;
68653;SDS011;55636;51.108;13.622;2024-01-11T00:46:08;29.38;;;21.45;;
68653;SDS011;55636;51.108;13.622;2024-01-11T00:47:10;28.92;;;21.58;;
68653;SDS011;55636;51.108;13.622;2024-01-11T00:48:13;29.23;;;21.30;;
68653;SDS011;55636;51.108;13.622;2024-01-11T00:49:15;31.10;;;21.23;;
68653;SDS011;55636;51.108;13.622;2024-01-11T00:50:18;30.55;;;21.50;;
68653;SDS011;55636;51.108;13.622;2024-01-11T00:51:20;27.88;;;21.15;;
68653;SDS011;55636;51.108;13.622;2024-01-11T00:52:23;30.60;;;22.27;;
68653;SDS011;55636;51.108;13.622;2024-01-11T00:53:25;29.95;;;22.92;;
68653;SDS011;55636;51.108;13.622;2024-01-11T00:54:33;29.70;;;21.50;;
68653;SDS011;55636;51.108;13.622;2024-01-11T00:55:35;30.02;;;22.35;;
68653;SDS011;55636;51.108;13.622;2024-01-11T00:56:37;32.35;;;21.63;;
68653;SDS011;55636;51.108;13.622;2024-01-11T00:57:40;29.50;;;21.90;;
68653;SDS011;55636;51.108;13.622;2024-01-11T00:58:44;31.65;;;21.98;;
68653;SDS011;55636;51.108;13.622;2024-01-11T00:59:47;32.75;;;23.08;;
68653;SDS011;55636;51.108;13.622;2024-01-11T01:00:49;30.02;;;21.52;;
68653;SDS011;55636;51.108;13.622;2024-01-11T01:01:52;28.95;;;21.83;;
68653;SDS011;55636;51.108;13.622;2024-01-11T01:02:54;32.58;;;22.88;;
68653;SDS011;55636;51.108;13.622;2024-01-11T01:03:57;30.65;;;22.83;;
68653;SDS011;55636;51.108;13.622;2024-01-11T01:05:00;31.00;;;22.35;;
68653;SDS011;55636;51.108;13.622;2024-01-11T01:06:04;30.92;;;21.80;;
68653;SDS011;55636;51.108;13.622;2024-01-11T01:07:07;30.05;;;21.85;;
68653;SDS011;55636;51.108;13.622;2024-01-11T01:08:09;31.45;;;22.02;;
68653;SDS011;55636;51.108;13.622;2024-01-11T01:09:12;30.10;;;22.23;;
68653;SDS011;55636;51.108;13.622;2024-01-11T01:10:15;34.35;;;23.42;;
68653;SDS011;55636;51.108;13.622;2024-01-11T01:11:18;31.98;;;22.85;;
68653;SDS011;55636;51.108;13.622;2024-01-11T01:12:20;33.35;;;22.60;;
68653;SDS011;55636;51.108;13.622;2024-01-11T01:13:25;31.55;;;22.63;;
68653;SDS011;55636;51.108;13.622;2024-01-11T01:14:27;31.30;;;22.73;;
68653;SDS011;55636;51.108;13.622;2024-01-11T01:15:30;28.67;;;22.25;;
68653;SDS011;55636;51.108;13.622;2024-01-11T01:16:32;29.98;;;22.05;;
68653;SDS011;55636;51.108;13.622;2024-01-11T01:17:34;31.48;;;22.55;;
68653;SDS011;55636;51.108;13.622;2024-01-11T01:18:37;30.38;;;21.92;;
68653;SDS011;55636;51.108;13.622;2024-01-11T01:19:40;31.60;;;22.35;;
68653;SDS011;55636;51.108;13.622;2024-01-11T01:20:42;29.27;;;21.33;;
68653;SDS011;55636;51.108;13.622;2024-01-11T01:21:45;29.30;;;21.15;;
68653;SDS011;55636;51.108;13.622;2024-01-11T01:22:47;27.85;;;21.40;;
68653;SDS011;55636;51.108;13.622;2024-01-11T01:23:51;28.42;;;21.15;;
68653;SDS011;55636;51.108;13.622;2024-01-11T01:24:53;29.38;;;21.85;;
68653;SDS011;55636;51.108;13.622;2024-01-11T01:25:56;30.95;;;21.70;;
68653;SDS011;55636;51.108;13.622;2024-01-11T01:26:58;30.88;;;21.80;;
68653;SDS011;55636;51.108;13.622;2024-01-11T01:28:01;28.33;;;20.73;;
68653;SDS011;55636;51.108;13.622;2024-01-11T01:29:03;26.98;;;21.13;;
68653;SDS011;55636;51.108;13.622;2024-01-11T01:30:07;27.08;;;20.85;;
68653;SDS011;55636;51.108;13.622;2024-01-11T01:31:11;26.23;;;20.55;;
68653;SDS011;55636;51.108;13.622;2024-01-11T01:32:14;28.63;;;20.77;;
68653;SDS011;55636;51.108;13.622;2024-01-11T01:33:17;28.85;;;20.70;;
68653;SDS011;55636;51.108;13.622;2024-01-11T01:34:20;28.63;;;20.23;;
68653;SDS011;55636;51.108;13.622;2024-01-11T01:35:22;26.33;;;19.98;;
68653;SDS011;55636;51.108;13.622;2024-01-11T01:36:25;27.40;;;20.85;;
68653;SDS011;55636;51.108;13.622;2024-01-11T01:37:27;26.27;;;20.27;;
68653;SDS011;55636;51.108;13.622;2024-01-11T01:38:29;27.75;;;20.05;;
68653;SDS011;55636;51.108;13.622;2024-01-11T01:39:33;28.85;;;21.00;;
68653;SDS011;55636;51.108;13.622;2024-01-11T01:40:39;27.38;;;20.42;;
68653;SDS011;55636;51.108;13.622;2024-01-11T01:41:42;25.75;;;19.95;;
68653;SDS011;55636;51.108;13.622;2024-01-11T01:42:46;30.35;;;20.88;;
68653;SDS011;55636;51.108;13.622;2024-01-11T01:43:48;29.45;;;21.13;;
68653;SDS011;55636;51.108;13.622;2024-01-11T01:44:51;31.80;;;21.50;;
68653;SDS011;55636;51.108;13.622;2024-01-11T01:45:53;29.05;;;21.05;;
68653;SDS011;55636;51.108;13.622;2024-01-11T01:46:56;30.55;;;21.60;;
68653;SDS011;55636;51.108;13.622;2024-01-11T01:47:59;29.77;;;21.48;;
68653;SDS011;55636;51.108;13.622;2024-01-11T01:49:03;27.60;;;20.88;;
68653;SDS011;55636;51.108;13.622;2024-01-11T01:50:07;27.48;;;20.75;;
68653;SDS011;55636;51.108;13.622;2024-01-11T01:51:14;29.13;;;20.48;;
68653;SDS011;55636;51.108;13.622;2024-01-11T01:52:17;27.63;;;21.00;;
68653;SDS011;55636;51.108;13.622;2024-01-11T01:53:21;28.92;;;21.00;;
68653;SDS011;55636;51.108;13.622;2024-01-11T01:54:27;30.00;;;21.08;;
68653;SDS011;55636;51.108;13.622;2024-01-11T01:55:30;29.42;;;21.67;;
68653;SDS011;55636;51.108;13.622;2024-01-11T01:56:33;30.27;;;21.58;;
68653;SDS011;55636;51.108;13.622;2024-01-11T01:57:35;28.63;;;20.85;;
68653;SDS011;55636;51.108;13.622;2024-01-11T01:58:39;27.95;;;20.70;;
68653;SDS011;55636;51.108;13.622;2024-01-11T01:59:44;29.13;;;20.65;;
68653;SDS011;55636;51.108;13.622;2024-01-11T02:00:48;27.83;;;20.50;;
68653;SDS011;55636;51.108;13.622;2024-01-11T02:01:52;28.98;;;21.52;;
68653;SDS011;55636;51.108;13.622;2024-01-11T02:02:55;28.38;;;20.45;;
68653;SDS011;55636;51.108;13.622;2024-01-11T02:03:58;26.92;;;20.60;;
68653;SDS011;55636;51.108;13.622;2024-01-11T02:05:02;27.88;;;21.23;;
68653;SDS011;55636;51.108;13.622;2024-01-11T02:06:06;28.38;;;20.90;;
68653;SDS011;55636;51.108;13.622;2024-01-11T02:07:09;28.45;;;21.27;;
68653;SDS011;55636;51.108;13.622;2024-01-11T02:08:15;28.33;;;20.90;;
68653;SDS011;55636;51.108;13.622;2024-01-11T02:09:19;28.98;;;21.15;;
68653;SDS011;55636;51.108;13.622;2024-01-11T02:10:22;30.02;;;21.38;;
68653;SDS011;55636;51.108;13.622;2024-01-11T02:11:25;28.20;;;20.80;;
68653;SDS011;55636;51.108;13.622;2024-01-11T02:12:29;28.10;;;21.23;;
68653;SDS011;55636;51.108;13.622;2024-01-11T02:13:32;30.60;;;21.65;;
68653;SDS011;55636;51.108;13.622;2024-01-11T02:14:34;30.17;;;22.00;;
68653;SDS011;55636;51.108;13.622;2024-01-11T02:15:39;28.98;;;21.30;;
68653;SDS011;55636;51.108;13.622;2024-01-11T02:16:42;29.17;;;21.45;;
68653;SDS011;55636;51.108;13.622;2024-01-11T02:17:45;30.63;;;21.48;;
68653;SDS011;55636;51.108;13.622;2024-01-11T02:18:47;29.33;;;21.75;;
68653;SDS011;55636;51.108;13.622;2024-01-11T02:19:50;31.65;;;21.92;;
68653;SDS011;55636;51.108;13.622;2024-01-11T02:20:53;28.92;;;21.17;;
68653;SDS011;55636;51.108;13.622;2024-01-11T02:21:55;28.95;;;21.27;;
68653;SDS011;55636;51.108;13.622;2024-01-11T02:23:04;27.08;;;20.42;;
68653;SDS011;55636;51.108;13.622;2024-01-11T02:24:08;29.85;;;21.65;;
68653;SDS011;55636;51.108;13.622;2024-01-11T02:25:11;28.67;;;20.40;;
68653;SDS011;55636;51.108;13.622;2024-01-11T02:26:14;28.20;;;20.80;;
68653;SDS011;55636;51.108;13.622;2024-01-11T02:27:17;30.70;;;21.75;;
68653;SDS011;55636;51.108;13.622;2024-01-11T02:28:20;28.13;;;21.48;;
68653;SDS011;55636;51.108;13.622;2024-01-11T02:29:22;29.60;;;20.85;;
68653;SDS011;55636;51.108;13.622;2024-01-11T02:30:24;29.60;;;21.35;;
68653;SDS011;55636;51.108;13.622;2024-01-11T02:31:27;28.15;;;20.75;;
68653;SDS011;55636;51.108;13.622;2024-01-11T02:32:30;30.38;;;21.77;;
68653;SDS011;55636;51.108;13.622;2024-01-11T02:33:32;28.23;;;21.73;;
68653;SDS011;55636;51.108;13.622;2024-01-11T02:34:36;29.75;;;21.13;;
68653;SDS011;55636;51.108;13.622;2024-01-11T02:35:39;29.73;;;21.90;;
68653;SDS011;55636;51.108;13.622;2024-01-11T02:36:48;31.15;;;21.65;;
68653;SDS011;55636;51.108;13.622;2024-01-11T02:37:51;30.27;;;21.63;;
68653;SDS011;55636;51.108;13.622;2024-01-11T02:38:53;29.48;;;21.98;;
68653;SDS011;55636;51.108;13.622;2024-01-11T02:39:56;30.95;;;21.42;;
68653;SDS011;55636;51.108;13.622;2024-01-11T02:40:59;31.63;;;21.90;;
68653;SDS011;55636;51.108;13.622;2024-01-11T02:42:02;31.63;;;21.95;;
68653;SDS011;55636;51.108;13.622;2024-01-11T02:43:11;31.60;;;21.95;;
68653;SDS011;55636;51.108;13.622;2024-01-11T02:44:13;30.13;;;21.77;;
68653;SDS011;55636;51.108;13.622;2024-01-11T02:45:16;31.02;;;21.00;;
68653;SDS011;55636;51.108;13.622;2024-01-11T02:46:18;32.05;;;21.90;;
68653;SDS011;55636;51.108;13.622;2024-01-11T02:47:21;31.58;;;21.65;;
68653;SDS011;55636;51.108;13.622;2024-01-11T02:48:27;31.92;;;22.88;;
68653;SDS011;55636;51.108;13.622;2024-01-11T02:49:32;31.75;;;21.95;;
68653;SDS011;55636;51.108;13.622;2024-01-11T02:50:35;32.17;;;22.02;;
68653;SDS011;55636;51.108;13.622;2024-01-11T02:51:37;31.27;;;22.15;;
68653;SDS011;55636;51.108;13.622;2024-01-11T02:52:40;32.95;;;22.30;;
68653;SDS011;55636;51.108;13.622;2024-01-11T02:53:42;30.42;;;22.02;;
68653;SDS011;55636;51.108;13.622;2024-01-11T02:54:45;32.38;;;22.25;;
68653;SDS011;55636;51.108;13.622;2024-01-11T02:55:47;31.33;;;21.90;;
68653;SDS011;55636;51.108;13.622;2024-01-11T02:56:49;31.10;;;21.88;;
68653;SDS011;55636;51.108;13.622;2024-01-11T02:57:52;30.05;;;22.10;;
68653;SDS011;55636;51.108;13.622;2024-01-11T02:58:57;33.00;;;22.60;;
68653;SDS011;55636;51.108;13.622;2024-01-11T02:59:59;33.03;;;21.95;;
68653;SDS011;55636;51.108;13.622;2024-01-11T03:01:02;32.35;;;22.17;;
68653;SDS011;55636;51.108;13.622;2024-01-11T03:02:04;31.95;;;22.52;;
68653;SDS011;55636;51.108;13.622;2024-01-11T03:03:07;31.52;;;22.73;;
68653;SDS011;55636;51.108;13.622;2024-01-11T03:04:10;32.35;;;22.38;;
68653;SDS011;55636;51.108;13.622;2024-01-11T03:05:13;30.52;;;21.88;;
68653;SDS011;55636;51.108;13.622;2024-01-11T03:06:15;32.85;;;22.10;;
68653;SDS011;55636;51.108;13.622;2024-01-11T03:07:23;32.75;;;22.25;;
68653;SDS011;55636;51.108;13.622;2024-01-11T03:08:26;28.52;;;20.85;;
68653;SDS011;55636;51.108;13.622;2024-01-11T03:09:28;31.60;;;22.33;;
68653;SDS011;55636;51.108;13.622;2024-01-11T03:10:30;31.58;;;22.08;;
68653;SDS011;55636;51.108;13.622;2024-01-11T03:11:33;32.60;;;22.38;;
68653;SDS011;55636;51.108;13.622;2024-01-11T03:12:35;32.78;;;22.33;;
68653;SDS011;55636;51.108;13.622;2024-01-11T03:13:38;33.90;;;21.48;;
68653;SDS011;55636;51.108;13.622;2024-01-11T03:14:40;32.15;;;22.20;;
68653;SDS011;55636;51.108;13.622;2024-01-11T03:15:42;33.92;;;22.67;;
68653;SDS011;55636;51.108;13.622;2024-01-11T03:16:46;31.52;;;21.60;;
68653;SDS011;55636;51.108;13.622;2024-01-11T03:17:49;33.42;;;22.73;;
68653;SDS011;55636;51.108;13.622;2024-01-11T03:18:51;32.40;;;21.90;;
68653;SDS011;55636;51.108;13.622;2024-01-11T03:19:54;31.30;;;22.40;;
68653;SDS011;55636;51.108;13.622;2024-01-11T03:20:56;33.40;;;22.65;;
68653;SDS011;55636;51.108;13.622;2024-01-11T03:21:59;31.42;;;22.75;;
68653;SDS011;55636;51.108;13.622;2024-01-11T03:23:05;34.30;;;22.58;;
68653;SDS011;55636;51.108;13.622;2024-01-11T03:24:07;31.67;;;22.15;;
68653;SDS011;55636;51.108;13.622;2024-01-11T03:25:11;33.97;;;22.42;;
68653;SDS011;55636;51.108;13.622;2024-01-11T03:26:17;31.95;;;21.88;;
68653;SDS011;55636;51.108;13.622;2024-01-11T03:27:20;34.95;;;22.35;;
68653;SDS011;55636;51.108;13.622;2024-01-11T03:28:24;31.60;;;22.02;;
68653;SDS011;55636;51.108;13.622;2024-01-11T03:29:26;32.67;;;22.42;;
68653;SDS011;55636;51.108;13.622;2024-01-11T03:30:29;32.28;;;22.27;;
68653;SDS011;55636;51.108;13.622;2024-01-11T03:31:32;31.88;;;21.77;;
68653;SDS011;55636;51.108;13.622;2024-01-11T03:32:34;30.80;;;21.77;;
68653;SDS011;55636;51.108;13.622;2024-01-11T03:33:37;33.47;;;22.88;;
68653;SDS011;55636;51.108;13.622;2024-01-11T03:34:40;30.65;;;21.77;;
68653;SDS011;55636;51.108;13.622;2024-01-11T03:35:42;32.65;;;22.80;;
68653;SDS011;55636;51.108;13.622;2024-01-11T03:36:46;31.80;;;21.50;;
68653;SDS011;55636;51.108;13.622;2024-01-11T03:37:48;33.08;;;21.88;;
68653;SDS011;55636;51.108;13.622;2024-01-11T03:38:51;30.13;;;21.45;;
68653;SDS011;55636;51.108;13.622;2024-01-11T03:39:53;29.75;;;20.92;;
68653;SDS011;55636;51.108;13.622;2024-01-11T03:40:56;31.60;;;22.30;;
68653;SDS011;55636;51.108;13.622;2024-01-11T03:41:58;29.95;;;21.85;;
68653;SDS011;55636;51.108;13.622;2024-01-11T03:43:01;31.20;;;21.50;;
68653;SDS011;55636;51.108;13.622;2024-01-11T03:44:03;26.90;;;20.35;;
68653;SDS011;55636;51.108;13.622;2024-01-11T03:45:06;30.85;;;20.58;;
68653;SDS011;55636;51.108;13.622;2024-01-11T03:46:09;30.77;;;21.00;;
68653;SDS011;55636;51.108;13.622;2024-01-11T03:47:11;29.67;;;21.08;;
68653;SDS011;55636;51.108;13.622;2024-01-11T03:48:14;31.83;;;20.95;;
68653;SDS011;55636;51.108;13.622;2024-01-11T03:49:16;28.63;;;20.70;;
68653;SDS011;55636;51.108;13.622;2024-01-11T03:50:18;29.80;;;21.13;;
68653;SDS011;55636;51.108;13.622;2024-01-11T03:51:21;28.60;;;20.58;;
68653;SDS011;55636;51.108;13.622;2024-01-11T03:52:24;29.48;;;20.77;;
68653;SDS011;55636;51.108;13.622;2024-01-11T03:53:27;27.75;;;20.10;;
68653;SDS011;55636;51.108;13.622;2024-01-11T03:54:30;27.90;;;20.10;;
68653;SDS011;55636;51.108;13.622;2024-01-11T03:55:32;28.52;;;20.33;;
68653;SDS011;55636;51.108;13.622;2024-01-11T03:56:37;29.10;;;20.60;;
68653;SDS011;55636;51.108;13.622;2024-01-11T03:57:41;27.35;;;19.80;;
68653;SDS011;55636;51.108;13.622;2024-01-11T03:58:46;28.70;;;20.20;;
68653;SDS011;55636;51.108;13.622;2024-01-11T03:59:48;25.55;;;19.38;;
68653;SDS011;55636;51.108;13.622;2024-01-11T04:00:51;28.17;;;20.58;;
68653;SDS011;55636;51.108;13.622;2024-01-11T04:01:53;28.25;;;19.90;;
68653;SDS011;55636;51.108;13.622;2024-01-11T04:02:56;29.02;;;20.75;;
68653;SDS011;55636;51.108;13.622;2024-01-11T04:03:58;27.15;;;20.08;;
68653;SDS011;55636;51.108;13.622;2024-01-11T04:05:01;26.95;;;19.77;;
68653;SDS011;55636;51.108;13.622;2024-01-11T04:06:03;28.50;;;20.38;;
68653;SDS011;55636;51.108;13.622;2024-01-11T04:07:06;30.17;;;20.48;;
68653;SDS011;55636;51.108;13.622;2024-01-11T04:08:08;28.20;;;20.48;;
68653;SDS011;55636;51.108;13.622;2024-01-11T04:09:11;27.85;;;20.98;;
68653;SDS011;55636;51.108;13.622;2024-01-11T04:10:15;29.40;;;20.38;;
68653;SDS011;55636;51.108;13.622;2024-01-11T04:11:18;27.90;;;20.48;;
68653;SDS011;55636;51.108;13.622;2024-01-11T04:12:20;27.77;;;20.20;;
68653;SDS011;55636;51.108;13.622;2024-01-11T04:13:22;27.38;;;20.25;;
68653;SDS011;55636;51.108;13.622;2024-01-11T04:14:26;28.83;;;21.33;;
68653;SDS011;55636;51.108;13.622;2024-01-11T04:15:28;29.20;;;20.42;;
68653;SDS011;55636;51.108;13.622;2024-01-11T04:16:31;28.17;;;20.77;;
68653;SDS011;55636;51.108;13.622;2024-01-11T04:17:33;32.05;;;21.10;;
68653;SDS011;55636;51.108;13.622;2024-01-11T04:18:36;29.60;;;21.02;;
68653;SDS011;55636;51.108;13.622;2024-01-11T04:19:39;29.65;;;20.55;;
68653;SDS011;55636;51.108;13.622;2024-01-11T04:20:41;29.85;;;20.48;;
68653;SDS011;55636;51.108;13.622;2024-01-11T04:21:44;29.65;;;21.10;;
68653;SDS011;55636;51.108;13.622;2024-01-11T04:22:46;29.48;;;20.38;;
68653;SDS011;55636;51.108;13.622;2024-01-11T04:23:51;30.17;;;20.77;;
68653;SDS011;55636;51.108;13.622;2024-01-11T04:24:53;29.17;;;20.80;;
68653;SDS011;55636;51.108;13.622;2024-01-11T04:25:56;29.85;;;21.08;;
68653;SDS011;55636;51.108;13.622;2024-01-11T04:26:58;28.20;;;20.58;;
68653;SDS011;55636;51.108;13.622;2024-01-11T04:28:01;31.77;;;20.92;;
68653;SDS011;55636;51.108;13.622;2024-01-11T04:29:03;29.17;;;21.38;;
68653;SDS011;55636;51.108;13.622;2024-01-11T04:30:06;28.73;;;20.75;;
68653;SDS011;55636;51.108;13.622;2024-01-11T04:31:09;30.90;;;21.17;;
68653;SDS011;55636;51.108;13.622;2024-01-11T04:32:11;27.42;;;20.45;;
68653;SDS011;55636;51.108;13.622;2024-01-11T04:33:14;27.45;;;19.85;;
68653;SDS011;55636;51.108;13.622;2024-01-11T04:34:16;28.55;;;20.40;;
68653;SDS011;55636;51.108;13.622;2024-01-11T04:35:18;31.83;;;20.95;;
68653;SDS011;55636;51.108;13.622;2024-01-11T04:36:21;29.67;;;21.17;;
68653;SDS011;55636;51.108;13.622;2024-01-11T04:37:23;29.23;;;20.73;;
68653;SDS011;55636;51.108;13.622;2024-01-11T04:38:26;30.55;;;20.52;;
68653;SDS011;55636;51.108;13.622;2024-01-11T04:39:28;30.55;;;21.10;;
68653;SDS011;55636;51.108;13.622;2024-01-11T04:40:30;27.42;;;20.52;;
68653;SDS011;55636;51.108;13.622;2024-01-11T04:41:34;31.55;;;21.73;;
68653;SDS011;55636;51.108;13.622;2024-01-11T04:42:39;28.95;;;20.33;;
68653;SDS011;55636;51.108;13.622;2024-01-11T04:43:42;31.92;;;21.45;;
68653;SDS011;55636;51.108;13.622;2024-01-11T04:44:45;29.88;;;21.33;;
68653;SDS011;55636;51.108;13.622;2024-01-11T04:45:48;30.00;;;21.15;;
68653;SDS011;55636;51.108;13.622;2024-01-11T04:46:50;30.52;;;21.30;;
68653;SDS011;55636;51.108;13.622;2024-01-11T04:47:52;30.38;;;20.80;;
68653;SDS011;55636;51.108;13.622;2024-01-11T04:48:55;27.05;;;20.13;;
68653;SDS011;55636;51.108;13.622;2024-01-11T04:49:58;30.08;;;20.95;;
68653;SDS011;55636;51.108;13.622;2024-01-11T04:51:01;29.67;;;21.17;;
68653;SDS011;55636;51.108;13.622;2024-01-11T04:52:04;27.80;;;20.17;;
68653;SDS011;55636;51.108;13.622;2024-01-11T04:53:07;28.33;;;20.10;;
68653;SDS011;55636;51.108;13.622;2024-01-11T04:54:09;28.85;;;20.88;;
68653;SDS011;55636;51.108;13.622;2024-01-11T04:55:13;29.27;;;20.33;;
68653;SDS011;55636;51.108;13.622;2024-01-11T04:56:15;29.92;;;20.92;;
68653;SDS011;55636;51.108;13.622;2024-01-11T04:57:18;30.70;;;20.77;;
68653;SDS011;55636;51.108;13.622;2024-01-11T04:58:21;29.27;;;20.98;;
68653;SDS011;55636;51.108;13.622;2024-01-11T04:59:24;28.23;;;20.90;;
68653;SDS011;55636;51.108;13.622;2024-01-11T05:00:26;27.98;;;20.33;;
68653;SDS011;55636;51.108;13.622;2024-01-11T05:01:28;30.13;;;20.35;;
68653;SDS011;55636;51.108;13.622;2024-01-11T05:02:31;29.30;;;20.85;;
68653;SDS011;55636;51.108;13.622;2024-01-11T05:03:33;28.75;;;20.73;;
68653;SDS011;55636;51.108;13.622;2024-01-11T05:04:36;28.67;;;20.95;;
68653;SDS011;55636;51.108;13.622;2024-01-11T05:05:38;31.88;;;21.38;;
68653;SDS011;55636;51.108;13.622;2024-01-11T05:06:41;30.55;;;20.98;;
68653;SDS011;55636;51.108;13.622;2024-01-11T05:07:44;30.27;;;20.60;;
68653;SDS011;55636;51.108;13.622;2024-01-11T05:08:47;28.48;;;20.23;;
68653;SDS011;55636;51.108;13.622;2024-01-11T05:09:51;29.15;;;20.67;;
68653;SDS011;55636;51.108;13.622;2024-01-11T05:10:53;28.45;;;21.38;;
68653;SDS011;55636;51.108;13.622;2024-01-11T05:11:56;31.10;;;21.08;;
68653;SDS011;55636;51.108;13.622;2024-01-11T05:12:58;29.52;;;20.23;;
68653;SDS011;55636;51.108;13.622;2024-01-11T05:14:01;29.33;;;21.08;;
68653;SDS011;55636;51.108;13.622;2024-01-11T05:15:05;32.17;;;21.02;;
68653;SDS011;55636;51.108;13.622;2024-01-11T05:16:23;30.38;;;21.27;;
68653;SDS011;55636;51.108;13.622;2024-01-11T05:17:27;31.45;;;21.08;;
68653;SDS011;55636;51.108;13.622;2024-01-11T05:18:30;30.75;;;20.83;;
68653;SDS011;55636;51.108;13.622;2024-01-11T05:19:35;27.40;;;20.55;;
68653;SDS011;55636;51.108;13.622;2024-01-11T05:20:38;30.88;;;21.63;;
68653;SDS011;55636;51.108;13.622;2024-01-11T05:21:41;27.77;;;19.58;;
68653;SDS011;55636;51.108;13.622;2024-01-11T05:22:44;28.85;;;20.13;;
68653;SDS011;55636;51.108;13.622;2024-01-11T05:23:46;27.75;;;19.92;;
68653;SDS011;55636;51.108;13.622;2024-01-11T05:24:50;27.60;;;20.10;;
68653;SDS011;55636;51.108;13.622;2024-01-11T05:25:52;30.25;;;20.25;;
68653;SDS011;55636;51.108;13.622;2024-01-11T05:26:55;27.73;;;20.55;;
68653;SDS011;55636;51.108;13.622;2024-01-11T05:27:57;28.83;;;20.40;;
68653;SDS011;55636;51.108;13.622;2024-01-11T05:28:59;29.52;;;20.83;;
68653;SDS011;55636;51.108;13.622;2024-01-11T05:30:02;27.90;;;20.23;;
68653;SDS011;55636;51.108;13.622;2024-01-11T05:31:09;30.80;;;20.85;;
68653;SDS011;55636;51.108;13.622;2024-01-11T05:32:14;31.08;;;20.70;;
68653;SDS011;55636;51.108;13.622;2024-01-11T05:33:16;28.15;;;20.42;;
68653;SDS011;55636;51.108;13.622;2024-01-11T05:34:19;28.95;;;20.60;;
68653;SDS011;55636;51.108;13.622;2024-01-11T05:35:22;29.08;;;20.45;;
68653;SDS011;55636;51.108;13.622;2024-01-11T05:36:29;29.45;;;20.67;;
68653;SDS011;55636;51.108;13.622;2024-01-11T05:37:32;27.77;;;20.30;;
68653;SDS011;55636;51.108;13.622;2024-01-11T05:38:34;30.25;;;21.15;;
68653;SDS011;55636;51.108;13.622;2024-01-11T05:39:37;27.80;;;21.25;;
68653;SDS011;55636;51.108;13.622;2024-01-11T05:40:40;30.98;;;22.02;;
68653;SDS011;55636;51.108;13.622;2024-01-11T05:41:45;29.15;;;20.88;;
68653;SDS011;55636;51.108;13.622;2024-01-11T05:42:47;29.25;;;21.40;;
68653;SDS011;55636;51.108;13.622;2024-01-11T05:43:50;28.35;;;20.88;;
68653;SDS011;55636;51.108;13.622;2024-01-11T05:44:52;30.55;;;21.77;;
68653;SDS011;55636;51.108;13.622;2024-01-11T05:45:55;27.98;;;19.88;;
68653;SDS011;55636;51.108;13.622;2024-01-11T05:46:57;31.05;;;21.45;;
68653;SDS011;55636;51.108;13.622;2024-01-11T05:47:59;28.20;;;21.88;;
68653;SDS011;55636;51.108;13.622;2024-01-11T05:49:02;27.73;;;20.60;;
68653;SDS011;55636;51.108;13.622;2024-01-11T05:50:06;29.58;;;21.17;;
68653;SDS011;55636;51.108;13.622;2024-01-11T05:51:09;28.23;;;20.67;;
68653;SDS011;55636;51.108;13.622;2024-01-11T05:52:11;29.95;;;22.52;;
68653;SDS011;55636;51.108;13.622;2024-01-11T05:53:15;34.67;;;24.30;;
68653;SDS011;55636;51.108;13.622;2024-01-11T05:54:19;30.63;;;23.95;;
68653;SDS011;55636;51.108;13.622;2024-01-11T05:55:21;30.77;;;22.25;;
68653;SDS011;55636;51.108;13.622;2024-01-11T05:56:24;30.58;;;22.25;;
68653;SDS011;55636;51.108;13.622;2024-01-11T05:57:27;31.33;;;22.98;;
68653;SDS011;55636;51.108;13.622;2024-01-11T05:58:30;33.15;;;22.63;;
68653;SDS011;55636;51.108;13.622;2024-01-11T05:59:32;30.83;;;22.63;;
68653;SDS011;55636;51.108;13.622;2024-01-11T06:00:35;32.35;;;25.00;;
68653;SDS011;55636;51.108;13.622;2024-01-11T06:01:42;31.88;;;23.70;;
68653;SDS011;55636;51.108;13.622;2024-01-11T06:02:48;34.25;;;23.67;;